sensor_id;sensor_type;location;lat;lon;timestamp;P1;durP1;ratioP1;P2;durP2;ratioP2
76548;SDS011;65391;52.068;4.542;2023-09-08T00:00:27;20.3;;;12.9;;
76548;SDS011;65391;52.068;4.542;2023-09-08T00:02:52;20.3;;;12.9;;
76548;SDS011;65391;52.068;4.542;2023-09-08T00:05:17;19.1;;;11.9;;
76548;SDS011;65391;52.068;4.542;2023-09-08T00:07:42;19.1;;;11.9;;
76548;SDS011;65391;52.068;4.542;2023-09-08T00:10:07;19.1;;;11.9;;
76548;SDS011;65391;52.068;4.542;2023-09-08T00:12:32;19.1;;;11.9;;
76548;SDS011;65391;52.068;4.542;2023-09-08T00:14:57;16.7;;;12.5;;
76548;SDS011;65391;52.068;4.542;2023-09-08T00:17:22;16.7;;;12.5;;
76548;SDS011;65391;52.068;4.542;2023-09-08T00:19:47;16.7;;;12.5;;
76548;SDS011;65391;52.068;4.542;2023-09-08T00:22:12;16.7;;;12.5;;
76548;SDS011;65391;52.068;4.542;2023-09-08T00:24:37;16.7;;;12.5;;
76548;SDS011;65391;52.068;4.542;2023-09-08T00:27:02;18.1;;;12;;
76548;SDS011;65391;52.068;4.542;2023-09-08T00:29:27;18.1;;;12;;
76548;SDS011;65391;52.068;4.542;2023-09-08T00:31:52;18.1;;;12;;
76548;SDS011;65391;52.068;4.542;2023-09-08T00:34:17;18.1;;;12;;
76548;SDS011;65391;52.068;4.542;2023-09-08T00:36:42;17.6;;;12;;
76548;SDS011;65391;52.068;4.542;2023-09-08T00:39:07;17.6;;;12;;
76548;SDS011;65391;52.068;4.542;2023-09-08T00:41:32;17.6;;;12;;
76548;SDS011;65391;52.068;4.542;2023-09-08T00:43:57;17.6;;;12;;
76548;SDS011;65391;52.068;4.542;2023-09-08T00:46:22;17.1;;;11.8;;
76548;SDS011;65391;52.068;4.542;2023-09-08T00:48:47;17.1;;;11.8;;
76548;SDS011;65391;52.068;4.542;2023-09-08T00:51:12;17.1;;;11.8;;
76548;SDS011;65391;52.068;4.542;2023-09-08T00:53:37;17.1;;;11.8;;
76548;SDS011;65391;52.068;4.542;2023-09-08T00:56:02;18;;;11.8;;
76548;SDS011;65391;52.068;4.542;2023-09-08T00:58:27;18;;;11.8;;
76548;SDS011;65391;52.068;4.542;2023-09-08T01:00:52;18;;;11.8;;
76548;SDS011;65391;52.068;4.542;2023-09-08T01:03:17;18;;;11.8;;
76548;SDS011;65391;52.068;4.542;2023-09-08T01:05:42;18.6;;;11.8;;
76548;SDS011;65391;52.068;4.542;2023-09-08T01:08:07;18.6;;;11.8;;
76548;SDS011;65391;52.068;4.542;2023-09-08T01:10:32;18.6;;;11.8;;
76548;SDS011;65391;52.068;4.542;2023-09-08T01:12:57;18.6;;;11.8;;
76548;SDS011;65391;52.068;4.542;2023-09-08T01:15:22;17.2;;;11.4;;
76548;SDS011;65391;52.068;4.542;2023-09-08T01:17:48;17.2;;;11.4;;
76548;SDS011;65391;52.068;4.542;2023-09-08T01:20:15;17.2;;;11.4;;
76548;SDS011;65391;52.068;4.542;2023-09-08T01:22:48;17.2;;;11.4;;
76548;SDS011;65391;52.068;4.542;2023-09-08T01:25:06;19.4;;;12.6;;
76548;SDS011;65391;52.068;4.542;2023-09-08T01:27:27;19.4;;;12.6;;
76548;SDS011;65391;52.068;4.542;2023-09-08T01:29:52;19.4;;;12.6;;
76548;SDS011;65391;52.068;4.542;2023-09-08T01:32:17;19.4;;;12.6;;
76548;SDS011;65391;52.068;4.542;2023-09-08T01:34:42;19.4;;;12.6;;
76548;SDS011;65391;52.068;4.542;2023-09-08T01:37:07;18.1;;;12.4;;
76548;SDS011;65391;52.068;4.542;2023-09-08T01:39:32;18.1;;;12.4;;
76548;SDS011;65391;52.068;4.542;2023-09-08T01:41:58;18.1;;;12.4;;
76548;SDS011;65391;52.068;4.542;2023-09-08T01:44:22;18.1;;;12.4;;
76548;SDS011;65391;52.068;4.542;2023-09-08T01:46:47;18.1;;;12.9;;
76548;SDS011;65391;52.068;4.542;2023-09-08T01:49:12;18.1;;;12.9;;
76548;SDS011;65391;52.068;4.542;2023-09-08T01:51:37;18.1;;;12.9;;
76548;SDS011;65391;52.068;4.542;2023-09-08T01:54:02;18.1;;;12.9;;
76548;SDS011;65391;52.068;4.542;2023-09-08T01:56:27;17.5;;;12.4;;
76548;SDS011;65391;52.068;4.542;2023-09-08T01:58:53;17.5;;;12.4;;
76548;SDS011;65391;52.068;4.542;2023-09-08T02:01:17;17.5;;;12.4;;
76548;SDS011;65391;52.068;4.542;2023-09-08T02:03:42;17.5;;;12.4;;
76548;SDS011;65391;52.068;4.542;2023-09-08T02:06:07;22.4;;;13.5;;
76548;SDS011;65391;52.068;4.542;2023-09-08T02:08:32;22.4;;;13.5;;
76548;SDS011;65391;52.068;4.542;2023-09-08T02:10:57;22.4;;;13.5;;
76548;SDS011;65391;52.068;4.542;2023-09-08T02:13:22;22.4;;;13.5;;
76548;SDS011;65391;52.068;4.542;2023-09-08T02:15:47;18.3;;;12.2;;
76548;SDS011;65391;52.068;4.542;2023-09-08T02:18:12;18.3;;;12.2;;
76548;SDS011;65391;52.068;4.542;2023-09-08T02:20:37;18.3;;;12.2;;
76548;SDS011;65391;52.068;4.542;2023-09-08T02:23:04;18.3;;;12.2;;
76548;SDS011;65391;52.068;4.542;2023-09-08T02:25:27;24.9;;;14.5;;
76548;SDS011;65391;52.068;4.542;2023-09-08T02:27:52;24.9;;;14.5;;
76548;SDS011;65391;52.068;4.542;2023-09-08T02:30:17;24.9;;;14.5;;
76548;SDS011;65391;52.068;4.542;2023-09-08T02:32:42;24.9;;;14.5;;
76548;SDS011;65391;52.068;4.542;2023-09-08T02:35:08;23.3;;;13.4;;
76548;SDS011;65391;52.068;4.542;2023-09-08T02:37:32;23.3;;;13.4;;
76548;SDS011;65391;52.068;4.542;2023-09-08T02:39:57;23.3;;;13.4;;
76548;SDS011;65391;52.068;4.542;2023-09-08T02:42:22;23.3;;;13.4;;
76548;SDS011;65391;52.068;4.542;2023-09-08T02:44:47;23.3;;;13.4;;
76548;SDS011;65391;52.068;4.542;2023-09-08T02:47:12;22.2;;;13.9;;
76548;SDS011;65391;52.068;4.542;2023-09-08T02:49:37;22.2;;;13.9;;
76548;SDS011;65391;52.068;4.542;2023-09-08T02:52:02;22.2;;;13.9;;
76548;SDS011;65391;52.068;4.542;2023-09-08T02:54:27;22.2;;;13.9;;
76548;SDS011;65391;52.068;4.542;2023-09-08T02:56:52;22.9;;;14.4;;
76548;SDS011;65391;52.068;4.542;2023-09-08T02:59:17;22.9;;;14.4;;
76548;SDS011;65391;52.068;4.542;2023-09-08T03:01:42;22.9;;;14.4;;
76548;SDS011;65391;52.068;4.542;2023-09-08T03:04:07;22.9;;;14.4;;
76548;SDS011;65391;52.068;4.542;2023-09-08T03:06:32;24.2;;;14.3;;
76548;SDS011;65391;52.068;4.542;2023-09-08T03:08:58;24.2;;;14.3;;
76548;SDS011;65391;52.068;4.542;2023-09-08T03:11:22;24.2;;;14.3;;
76548;SDS011;65391;52.068;4.542;2023-09-08T03:13:47;24.2;;;14.3;;
76548;SDS011;65391;52.068;4.542;2023-09-08T03:16:12;23.1;;;13.5;;
76548;SDS011;65391;52.068;4.542;2023-09-08T03:18:38;23.1;;;13.5;;
76548;SDS011;65391;52.068;4.542;2023-09-08T03:21:03;23.1;;;13.5;;
76548;SDS011;65391;52.068;4.542;2023-09-08T03:23:27;23.1;;;13.5;;
76548;SDS011;65391;52.068;4.542;2023-09-08T03:25:52;23.2;;;13.6;;
76548;SDS011;65391;52.068;4.542;2023-09-08T03:28:18;23.2;;;13.6;;
76548;SDS011;65391;52.068;4.542;2023-09-08T03:30:42;23.2;;;13.6;;
76548;SDS011;65391;52.068;4.542;2023-09-08T03:33:07;23.2;;;13.6;;
76548;SDS011;65391;52.068;4.542;2023-09-08T03:35:32;22.2;;;13.9;;
76548;SDS011;65391;52.068;4.542;2023-09-08T03:37:57;22.2;;;13.9;;
76548;SDS011;65391;52.068;4.542;2023-09-08T03:40:22;22.2;;;13.9;;
76548;SDS011;65391;52.068;4.542;2023-09-08T03:42:48;22.2;;;13.9;;
76548;SDS011;65391;52.068;4.542;2023-09-08T03:45:12;19.1;;;12.3;;
76548;SDS011;65391;52.068;4.542;2023-09-08T03:47:37;19.1;;;12.3;;
76548;SDS011;65391;52.068;4.542;2023-09-08T03:50:03;19.1;;;12.3;;
76548;SDS011;65391;52.068;4.542;2023-09-08T03:52:27;19.1;;;12.3;;
76548;SDS011;65391;52.068;4.542;2023-09-08T03:54:53;19.1;;;12.3;;
76548;SDS011;65391;52.068;4.542;2023-09-08T03:57:18;22.6;;;12.8;;
76548;SDS011;65391;52.068;4.542;2023-09-08T03:59:42;22.6;;;12.8;;
76548;SDS011;65391;52.068;4.542;2023-09-08T04:02:07;22.6;;;12.8;;
76548;SDS011;65391;52.068;4.542;2023-09-08T04:04:33;22.6;;;12.8;;
76548;SDS011;65391;52.068;4.542;2023-09-08T04:06:57;24.4;;;14.5;;
76548;SDS011;65391;52.068;4.542;2023-09-08T04:09:22;24.4;;;14.5;;
76548;SDS011;65391;52.068;4.542;2023-09-08T04:11:47;24.4;;;14.5;;
76548;SDS011;65391;52.068;4.542;2023-09-08T04:14:13;24.4;;;14.5;;
76548;SDS011;65391;52.068;4.542;2023-09-08T04:16:37;22.2;;;12.7;;
76548;SDS011;65391;52.068;4.542;2023-09-08T04:19:03;22.2;;;12.7;;
76548;SDS011;65391;52.068;4.542;2023-09-08T04:21:27;22.2;;;12.7;;
76548;SDS011;65391;52.068;4.542;2023-09-08T04:23:52;22.2;;;12.7;;
76548;SDS011;65391;52.068;4.542;2023-09-08T04:26:17;24.7;;;15;;
76548;SDS011;65391;52.068;4.542;2023-09-08T04:28:42;24.7;;;15;;
76548;SDS011;65391;52.068;4.542;2023-09-08T04:31:07;24.7;;;15;;
76548;SDS011;65391;52.068;4.542;2023-09-08T04:33:32;24.7;;;15;;
76548;SDS011;65391;52.068;4.542;2023-09-08T04:35:57;24.4;;;14.5;;
76548;SDS011;65391;52.068;4.542;2023-09-08T04:38:23;24.4;;;14.5;;
76548;SDS011;65391;52.068;4.542;2023-09-08T04:40:48;24.4;;;14.5;;
76548;SDS011;65391;52.068;4.542;2023-09-08T04:43:12;24.4;;;14.5;;
76548;SDS011;65391;52.068;4.542;2023-09-08T04:45:37;22.2;;;12.7;;
76548;SDS011;65391;52.068;4.542;2023-09-08T04:48:04;22.2;;;12.7;;
76548;SDS011;65391;52.068;4.542;2023-09-08T04:50:28;22.2;;;12.7;;
76548;SDS011;65391;52.068;4.542;2023-09-08T04:52:53;22.2;;;12.7;;
76548;SDS011;65391;52.068;4.542;2023-09-08T04:55:18;22;;;12.8;;
76548;SDS011;65391;52.068;4.542;2023-09-08T04:57:43;22;;;12.8;;
76548;SDS011;65391;52.068;4.542;2023-09-08T05:00:08;22;;;12.8;;
76548;SDS011;65391;52.068;4.542;2023-09-08T05:02:33;22;;;12.8;;
76548;SDS011;65391;52.068;4.542;2023-09-08T05:04:58;22;;;12.8;;
76548;SDS011;65391;52.068;4.542;2023-09-08T05:07:23;22.4;;;13.2;;
76548;SDS011;65391;52.068;4.542;2023-09-08T05:09:48;22.4;;;13.2;;
76548;SDS011;65391;52.068;4.542;2023-09-08T05:12:13;22.4;;;13.2;;
76548;SDS011;65391;52.068;4.542;2023-09-08T05:14:38;22.4;;;13.2;;
76548;SDS011;65391;52.068;4.542;2023-09-08T05:17:03;22.3;;;13.3;;
76548;SDS011;65391;52.068;4.542;2023-09-08T05:19:28;22.3;;;13.3;;
76548;SDS011;65391;52.068;4.542;2023-09-08T05:21:53;22.3;;;13.3;;
76548;SDS011;65391;52.068;4.542;2023-09-08T05:24:18;22.3;;;13.3;;
76548;SDS011;65391;52.068;4.542;2023-09-08T05:26:43;22.7;;;13.6;;
76548;SDS011;65391;52.068;4.542;2023-09-08T05:29:08;22.7;;;13.6;;
76548;SDS011;65391;52.068;4.542;2023-09-08T05:31:33;22.7;;;13.6;;
76548;SDS011;65391;52.068;4.542;2023-09-08T05:33:58;22.7;;;13.6;;
76548;SDS011;65391;52.068;4.542;2023-09-08T05:36:23;20.4;;;13.1;;
76548;SDS011;65391;52.068;4.542;2023-09-08T05:38:48;20.4;;;13.1;;
76548;SDS011;65391;52.068;4.542;2023-09-08T05:41:13;20.4;;;13.1;;
76548;SDS011;65391;52.068;4.542;2023-09-08T05:43:38;20.4;;;13.1;;
76548;SDS011;65391;52.068;4.542;2023-09-08T05:46:03;21.8;;;13;;
76548;SDS011;65391;52.068;4.542;2023-09-08T05:48:28;21.8;;;13;;
76548;SDS011;65391;52.068;4.542;2023-09-08T05:50:53;21.8;;;13;;
76548;SDS011;65391;52.068;4.542;2023-09-08T05:53:18;21.8;;;13;;
76548;SDS011;65391;52.068;4.542;2023-09-08T05:55:43;19.4;;;12.1;;
76548;SDS011;65391;52.068;4.542;2023-09-08T05:58:08;19.4;;;12.1;;
76548;SDS011;65391;52.068;4.542;2023-09-08T06:00:33;19.4;;;12.1;;
76548;SDS011;65391;52.068;4.542;2023-09-08T06:02:58;19.4;;;12.1;;
76548;SDS011;65391;52.068;4.542;2023-09-08T06:05:23;23.7;;;13.3;;
76548;SDS011;65391;52.068;4.542;2023-09-08T06:07:48;23.7;;;13.3;;
76548;SDS011;65391;52.068;4.542;2023-09-08T06:10:13;23.7;;;13.3;;
76548;SDS011;65391;52.068;4.542;2023-09-08T06:12:38;23.7;;;13.3;;
76548;SDS011;65391;52.068;4.542;2023-09-08T06:15:03;23.7;;;13.3;;
76548;SDS011;65391;52.068;4.542;2023-09-08T06:17:28;20.5;;;14;;
76548;SDS011;65391;52.068;4.542;2023-09-08T06:19:53;20.5;;;14;;
76548;SDS011;65391;52.068;4.542;2023-09-08T06:22:18;20.5;;;14;;
76548;SDS011;65391;52.068;4.542;2023-09-08T06:24:43;20.5;;;14;;
76548;SDS011;65391;52.068;4.542;2023-09-08T06:27:08;24.4;;;13.6;;
76548;SDS011;65391;52.068;4.542;2023-09-08T06:29:33;24.4;;;13.6;;
76548;SDS011;65391;52.068;4.542;2023-09-08T06:31:58;24.4;;;13.6;;
76548;SDS011;65391;52.068;4.542;2023-09-08T06:34:23;24.4;;;13.6;;
76548;SDS011;65391;52.068;4.542;2023-09-08T06:36:48;24.5;;;13.6;;
76548;SDS011;65391;52.068;4.542;2023-09-08T06:39:13;24.5;;;13.6;;
76548;SDS011;65391;52.068;4.542;2023-09-08T06:41:38;24.5;;;13.6;;
76548;SDS011;65391;52.068;4.542;2023-09-08T06:44:03;24.5;;;13.6;;
76548;SDS011;65391;52.068;4.542;2023-09-08T06:46:28;20.2;;;14.1;;
76548;SDS011;65391;52.068;4.542;2023-09-08T06:48:53;20.2;;;14.1;;
76548;SDS011;65391;52.068;4.542;2023-09-08T06:51:18;20.2;;;14.1;;
76548;SDS011;65391;52.068;4.542;2023-09-08T06:53:43;20.2;;;14.1;;
76548;SDS011;65391;52.068;4.542;2023-09-08T06:56:08;21.3;;;13.9;;
76548;SDS011;65391;52.068;4.542;2023-09-08T06:58:33;21.3;;;13.9;;
76548;SDS011;65391;52.068;4.542;2023-09-08T07:00:58;21.3;;;13.9;;
76548;SDS011;65391;52.068;4.542;2023-09-08T07:03:23;21.3;;;13.9;;
76548;SDS011;65391;52.068;4.542;2023-09-08T07:05:49;18.4;;;13.4;;
76548;SDS011;65391;52.068;4.542;2023-09-08T07:08:13;18.4;;;13.4;;
76548;SDS011;65391;52.068;4.542;2023-09-08T07:10:38;18.4;;;13.4;;
76548;SDS011;65391;52.068;4.542;2023-09-08T07:13:03;18.4;;;13.4;;
76548;SDS011;65391;52.068;4.542;2023-09-08T07:15:28;17;;;13.5;;
76548;SDS011;65391;52.068;4.542;2023-09-08T07:17:53;17;;;13.5;;
76548;SDS011;65391;52.068;4.542;2023-09-08T07:20:18;17;;;13.5;;
76548;SDS011;65391;52.068;4.542;2023-09-08T07:22:43;17;;;13.5;;
76548;SDS011;65391;52.068;4.542;2023-09-08T07:25:08;17;;;13.5;;
76548;SDS011;65391;52.068;4.542;2023-09-08T07:27:33;21;;;15.1;;
76548;SDS011;65391;52.068;4.542;2023-09-08T07:29:58;21;;;15.1;;
76548;SDS011;65391;52.068;4.542;2023-09-08T07:32:23;21;;;15.1;;
76548;SDS011;65391;52.068;4.542;2023-09-08T07:34:48;21;;;15.1;;
76548;SDS011;65391;52.068;4.542;2023-09-08T07:37:13;17.4;;;15.1;;
76548;SDS011;65391;52.068;4.542;2023-09-08T07:39:38;17.4;;;15.1;;
76548;SDS011;65391;52.068;4.542;2023-09-08T07:42:03;17.4;;;15.1;;
76548;SDS011;65391;52.068;4.542;2023-09-08T07:44:28;17.4;;;15.1;;
76548;SDS011;65391;52.068;4.542;2023-09-08T07:46:53;18.5;;;14.8;;
76548;SDS011;65391;52.068;4.542;2023-09-08T07:49:18;18.5;;;14.8;;
76548;SDS011;65391;52.068;4.542;2023-09-08T07:51:43;18.5;;;14.8;;
76548;SDS011;65391;52.068;4.542;2023-09-08T07:54:08;18.5;;;14.8;;
76548;SDS011;65391;52.068;4.542;2023-09-08T07:56:33;20;;;15.3;;
76548;SDS011;65391;52.068;4.542;2023-09-08T07:58:58;20;;;15.3;;
76548;SDS011;65391;52.068;4.542;2023-09-08T08:01:23;20;;;15.3;;
76548;SDS011;65391;52.068;4.542;2023-09-08T08:03:48;20;;;15.3;;
76548;SDS011;65391;52.068;4.542;2023-09-08T08:06:13;19.7;;;16.5;;
76548;SDS011;65391;52.068;4.542;2023-09-08T08:08:38;19.7;;;16.5;;
76548;SDS011;65391;52.068;4.542;2023-09-08T08:11:08;19.7;;;16.5;;
76548;SDS011;65391;52.068;4.542;2023-09-08T08:13:28;19.7;;;16.5;;
76548;SDS011;65391;52.068;4.542;2023-09-08T08:15:53;21.6;;;16.1;;
76548;SDS011;65391;52.068;4.542;2023-09-08T08:18:18;21.6;;;16.1;;
76548;SDS011;65391;52.068;4.542;2023-09-08T08:20:43;21.6;;;16.1;;
76548;SDS011;65391;52.068;4.542;2023-09-08T08:23:08;21.6;;;16.1;;
76548;SDS011;65391;52.068;4.542;2023-09-08T08:25:33;18.5;;;14.7;;
76548;SDS011;65391;52.068;4.542;2023-09-08T08:27:58;18.5;;;14.7;;
76548;SDS011;65391;52.068;4.542;2023-09-08T08:30:23;18.5;;;14.7;;
76548;SDS011;65391;52.068;4.542;2023-09-08T08:32:48;18.5;;;14.7;;
76548;SDS011;65391;52.068;4.542;2023-09-08T08:35:13;18.5;;;14.7;;
76548;SDS011;65391;52.068;4.542;2023-09-08T08:37:39;25.8;;;16;;
76548;SDS011;65391;52.068;4.542;2023-09-08T08:40:04;25.8;;;16;;
76548;SDS011;65391;52.068;4.542;2023-09-08T08:42:31;25.8;;;16;;
76548;SDS011;65391;52.068;4.542;2023-09-08T08:44:53;25.8;;;16;;
76548;SDS011;65391;52.068;4.542;2023-09-08T08:47:18;19.8;;;14.9;;
76548;SDS011;65391;52.068;4.542;2023-09-08T08:49:43;19.8;;;14.9;;
76548;SDS011;65391;52.068;4.542;2023-09-08T08:52:08;19.8;;;14.9;;
76548;SDS011;65391;52.068;4.542;2023-09-08T08:54:33;19.8;;;14.9;;
76548;SDS011;65391;52.068;4.542;2023-09-08T08:56:58;22.9;;;14.8;;
76548;SDS011;65391;52.068;4.542;2023-09-08T08:59:23;22.9;;;14.8;;
76548;SDS011;65391;52.068;4.542;2023-09-08T09:01:48;22.9;;;14.8;;
76548;SDS011;65391;52.068;4.542;2023-09-08T09:04:13;22.9;;;14.8;;
76548;SDS011;65391;52.068;4.542;2023-09-08T09:06:38;19;;;14.5;;
76548;SDS011;65391;52.068;4.542;2023-09-08T09:09:03;19;;;14.5;;
76548;SDS011;65391;52.068;4.542;2023-09-08T09:11:28;19;;;14.5;;
76548;SDS011;65391;52.068;4.542;2023-09-08T09:13:53;19;;;14.5;;
76548;SDS011;65391;52.068;4.542;2023-09-08T09:16:18;18.8;;;13.4;;
76548;SDS011;65391;52.068;4.542;2023-09-08T09:18:53;18.8;;;13.4;;
76548;SDS011;65391;52.068;4.542;2023-09-08T09:21:08;18.8;;;13.4;;
76548;SDS011;65391;52.068;4.542;2023-09-08T09:23:34;18.8;;;13.4;;
76548;SDS011;65391;52.068;4.542;2023-09-08T09:25:59;17.9;;;13.1;;
76548;SDS011;65391;52.068;4.542;2023-09-08T09:28:23;17.9;;;13.1;;
76548;SDS011;65391;52.068;4.542;2023-09-08T09:30:49;17.9;;;13.1;;
76548;SDS011;65391;52.068;4.542;2023-09-08T09:33:13;17.9;;;13.1;;
76548;SDS011;65391;52.068;4.542;2023-09-08T09:35:39;15.5;;;11.1;;
76548;SDS011;65391;52.068;4.542;2023-09-08T09:38:03;15.5;;;11.1;;
76548;SDS011;65391;52.068;4.542;2023-09-08T09:40:28;15.5;;;11.1;;
76548;SDS011;65391;52.068;4.542;2023-09-08T09:42:53;15.5;;;11.1;;
76548;SDS011;65391;52.068;4.542;2023-09-08T09:45:18;15.5;;;11.1;;
76548;SDS011;65391;52.068;4.542;2023-09-08T09:47:43;16.6;;;12.6;;
76548;SDS011;65391;52.068;4.542;2023-09-08T09:50:09;16.6;;;12.6;;
76548;SDS011;65391;52.068;4.542;2023-09-08T09:52:34;16.6;;;12.6;;
76548;SDS011;65391;52.068;4.542;2023-09-08T09:54:58;16.6;;;12.6;;
76548;SDS011;65391;52.068;4.542;2023-09-08T09:57:23;14.6;;;9.1;;
76548;SDS011;65391;52.068;4.542;2023-09-08T09:59:48;14.6;;;9.1;;
76548;SDS011;65391;52.068;4.542;2023-09-08T10:02:13;14.6;;;9.1;;
76548;SDS011;65391;52.068;4.542;2023-09-08T10:04:38;14.6;;;9.1;;
76548;SDS011;65391;52.068;4.542;2023-09-08T10:07:03;12.4;;;10.7;;
76548;SDS011;65391;52.068;4.542;2023-09-08T10:09:28;12.4;;;10.7;;
76548;SDS011;65391;52.068;4.542;2023-09-08T10:11:54;12.4;;;10.7;;
76548;SDS011;65391;52.068;4.542;2023-09-08T10:14:18;12.4;;;10.7;;
76548;SDS011;65391;52.068;4.542;2023-09-08T10:16:44;14.1;;;11.2;;
76548;SDS011;65391;52.068;4.542;2023-09-08T10:19:09;14.1;;;11.2;;
76548;SDS011;65391;52.068;4.542;2023-09-08T10:21:33;14.1;;;11.2;;
76548;SDS011;65391;52.068;4.542;2023-09-08T10:24:00;14.1;;;11.2;;
76548;SDS011;65391;52.068;4.542;2023-09-08T10:26:25;18.1;;;11.9;;
76548;SDS011;65391;52.068;4.542;2023-09-08T10:28:48;18.1;;;11.9;;
76548;SDS011;65391;52.068;4.542;2023-09-08T10:31:13;18.1;;;11.9;;
76548;SDS011;65391;52.068;4.542;2023-09-08T10:33:38;18.1;;;11.9;;
76548;SDS011;65391;52.068;4.542;2023-09-08T10:36:04;11.8;;;10.3;;
76548;SDS011;65391;52.068;4.542;2023-09-08T10:38:31;11.8;;;10.3;;
76548;SDS011;65391;52.068;4.542;2023-09-08T10:41:24;11.8;;;10.3;;
76548;SDS011;65391;52.068;4.542;2023-09-08T10:43:19;11.8;;;10.3;;
76548;SDS011;65391;52.068;4.542;2023-09-08T10:45:43;12.9;;;9.5;;
76548;SDS011;65391;52.068;4.542;2023-09-08T10:48:08;12.9;;;9.5;;
76548;SDS011;65391;52.068;4.542;2023-09-08T10:50:35;12.9;;;9.5;;
76548;SDS011;65391;52.068;4.542;2023-09-08T10:53:15;12.9;;;9.5;;
76548;SDS011;65391;52.068;4.542;2023-09-08T10:55:34;12.9;;;9.5;;
76548;SDS011;65391;52.068;4.542;2023-09-08T10:57:48;15.9;;;10.3;;
76548;SDS011;65391;52.068;4.542;2023-09-08T11:00:17;15.9;;;10.3;;
76548;SDS011;65391;52.068;4.542;2023-09-08T11:02:39;15.9;;;10.3;;
76548;SDS011;65391;52.068;4.542;2023-09-08T11:05:06;15.9;;;10.3;;
76548;SDS011;65391;52.068;4.542;2023-09-08T11:07:28;12.2;;;9.6;;
76548;SDS011;65391;52.068;4.542;2023-09-08T11:09:53;12.2;;;9.6;;
76548;SDS011;65391;52.068;4.542;2023-09-08T11:12:18;12.2;;;9.6;;
76548;SDS011;65391;52.068;4.542;2023-09-08T11:14:43;12.2;;;9.6;;
76548;SDS011;65391;52.068;4.542;2023-09-08T11:17:09;16.5;;;8.6;;
76548;SDS011;65391;52.068;4.542;2023-09-08T11:19:49;16.5;;;8.6;;
76548;SDS011;65391;52.068;4.542;2023-09-08T11:21:58;16.5;;;8.6;;
76548;SDS011;65391;52.068;4.542;2023-09-08T11:24:23;16.5;;;8.6;;
76548;SDS011;65391;52.068;4.542;2023-09-08T11:26:48;10.8;;;8.6;;
76548;SDS011;65391;52.068;4.542;2023-09-08T11:29:13;10.8;;;8.6;;
76548;SDS011;65391;52.068;4.542;2023-09-08T11:31:38;10.8;;;8.6;;
76548;SDS011;65391;52.068;4.542;2023-09-08T11:34:04;10.8;;;8.6;;
76548;SDS011;65391;52.068;4.542;2023-09-08T11:36:28;12.9;;;7.9;;
76548;SDS011;65391;52.068;4.542;2023-09-08T11:38:53;12.9;;;7.9;;
76548;SDS011;65391;52.068;4.542;2023-09-08T11:41:18;12.9;;;7.9;;
76548;SDS011;65391;52.068;4.542;2023-09-08T11:43:43;12.9;;;7.9;;
76548;SDS011;65391;52.068;4.542;2023-09-08T11:46:09;6.7;;;5.3;;
76548;SDS011;65391;52.068;4.542;2023-09-08T11:48:33;6.7;;;5.3;;
76548;SDS011;65391;52.068;4.542;2023-09-08T11:50:58;6.7;;;5.3;;
76548;SDS011;65391;52.068;4.542;2023-09-08T11:53:23;6.7;;;5.3;;
76548;SDS011;65391;52.068;4.542;2023-09-08T11:55:49;9.5;;;5.8;;
76548;SDS011;65391;52.068;4.542;2023-09-08T11:58:13;9.5;;;5.8;;
76548;SDS011;65391;52.068;4.542;2023-09-08T12:00:39;9.5;;;5.8;;
76548;SDS011;65391;52.068;4.542;2023-09-08T12:03:11;9.5;;;5.8;;
76548;SDS011;65391;52.068;4.542;2023-09-08T12:05:29;9.5;;;5.8;;
76548;SDS011;65391;52.068;4.542;2023-09-08T12:07:54;7.3;;;5.9;;
76548;SDS011;65391;52.068;4.542;2023-09-08T12:10:19;7.3;;;5.9;;
76548;SDS011;65391;52.068;4.542;2023-09-08T12:12:45;7.3;;;5.9;;
76548;SDS011;65391;52.068;4.542;2023-09-08T12:15:09;7.3;;;5.9;;
76548;SDS011;65391;52.068;4.542;2023-09-08T12:17:35;7.7;;;5.7;;
76548;SDS011;65391;52.068;4.542;2023-09-08T12:19:58;7.7;;;5.7;;
76548;SDS011;65391;52.068;4.542;2023-09-08T12:22:23;7.7;;;5.7;;
76548;SDS011;65391;52.068;4.542;2023-09-08T12:24:51;7.7;;;5.7;;
76548;SDS011;65391;52.068;4.542;2023-09-08T12:27:14;7.5;;;4.3;;
76548;SDS011;65391;52.068;4.542;2023-09-08T12:29:39;7.5;;;4.3;;
76548;SDS011;65391;52.068;4.542;2023-09-08T12:32:04;7.5;;;4.3;;
76548;SDS011;65391;52.068;4.542;2023-09-08T12:34:29;7.5;;;4.3;;
76548;SDS011;65391;52.068;4.542;2023-09-08T12:36:55;6.8;;;5.5;;
76548;SDS011;65391;52.068;4.542;2023-09-08T12:39:19;6.8;;;5.5;;
76548;SDS011;65391;52.068;4.542;2023-09-08T12:41:44;6.8;;;5.5;;
76548;SDS011;65391;52.068;4.542;2023-09-08T12:44:09;6.8;;;5.5;;
76548;SDS011;65391;52.068;4.542;2023-09-08T12:46:34;6.3;;;4.9;;
76548;SDS011;65391;52.068;4.542;2023-09-08T12:48:59;6.3;;;4.9;;
76548;SDS011;65391;52.068;4.542;2023-09-08T12:51:24;6.3;;;4.9;;
76548;SDS011;65391;52.068;4.542;2023-09-08T12:53:49;6.3;;;4.9;;
76548;SDS011;65391;52.068;4.542;2023-09-08T12:56:14;6.9;;;3.6;;
76548;SDS011;65391;52.068;4.542;2023-09-08T12:58:39;6.9;;;3.6;;
76548;SDS011;65391;52.068;4.542;2023-09-08T13:01:04;6.9;;;3.6;;
76548;SDS011;65391;52.068;4.542;2023-09-08T13:03:29;6.9;;;3.6;;
76548;SDS011;65391;52.068;4.542;2023-09-08T13:05:54;6.9;;;3.6;;
76548;SDS011;65391;52.068;4.542;2023-09-08T13:08:19;7.3;;;3.5;;
76548;SDS011;65391;52.068;4.542;2023-09-08T13:10:44;7.3;;;3.5;;
76548;SDS011;65391;52.068;4.542;2023-09-08T13:13:09;7.3;;;3.5;;
76548;SDS011;65391;52.068;4.542;2023-09-08T13:15:34;7.3;;;3.5;;
76548;SDS011;65391;52.068;4.542;2023-09-08T13:17:59;6.8;;;3.8;;
76548;SDS011;65391;52.068;4.542;2023-09-08T13:20:24;6.8;;;3.8;;
76548;SDS011;65391;52.068;4.542;2023-09-08T13:22:49;6.8;;;3.8;;
76548;SDS011;65391;52.068;4.542;2023-09-08T13:25:14;6.8;;;3.8;;
76548;SDS011;65391;52.068;4.542;2023-09-08T13:27:40;3.9;;;3.5;;
76548;SDS011;65391;52.068;4.542;2023-09-08T13:30:07;3.9;;;3.5;;
76548;SDS011;65391;52.068;4.542;2023-09-08T13:32:29;3.9;;;3.5;;
76548;SDS011;65391;52.068;4.542;2023-09-08T13:34:54;3.9;;;3.5;;
76548;SDS011;65391;52.068;4.542;2023-09-08T13:37:19;6.4;;;4;;
76548;SDS011;65391;52.068;4.542;2023-09-08T13:39:44;6.4;;;4;;
76548;SDS011;65391;52.068;4.542;2023-09-08T13:42:09;6.4;;;4;;
76548;SDS011;65391;52.068;4.542;2023-09-08T13:44:34;6.4;;;4;;
76548;SDS011;65391;52.068;4.542;2023-09-08T13:46:59;5.6;;;3.9;;
76548;SDS011;65391;52.068;4.542;2023-09-08T13:49:25;5.6;;;3.9;;
76548;SDS011;65391;52.068;4.542;2023-09-08T13:51:49;5.6;;;3.9;;
76548;SDS011;65391;52.068;4.542;2023-09-08T13:54:14;5.6;;;3.9;;
76548;SDS011;65391;52.068;4.542;2023-09-08T13:56:40;4.1;;;3.7;;
76548;SDS011;65391;52.068;4.542;2023-09-08T13:59:04;4.1;;;3.7;;
76548;SDS011;65391;52.068;4.542;2023-09-08T14:01:29;4.1;;;3.7;;
76548;SDS011;65391;52.068;4.542;2023-09-08T14:03:54;4.1;;;3.7;;
76548;SDS011;65391;52.068;4.542;2023-09-08T14:06:19;7.1;;;4.7;;
76548;SDS011;65391;52.068;4.542;2023-09-08T14:08:44;7.1;;;4.7;;
76548;SDS011;65391;52.068;4.542;2023-09-08T14:11:09;7.1;;;4.7;;
76548;SDS011;65391;52.068;4.542;2023-09-08T14:13:34;7.1;;;4.7;;
76548;SDS011;65391;52.068;4.542;2023-09-08T14:15:59;7.1;;;4.7;;
76548;SDS011;65391;52.068;4.542;2023-09-08T14:18:24;6.6;;;4.7;;
76548;SDS011;65391;52.068;4.542;2023-09-08T14:20:49;6.6;;;4.7;;
76548;SDS011;65391;52.068;4.542;2023-09-08T14:23:14;6.6;;;4.7;;
76548;SDS011;65391;52.068;4.542;2023-09-08T14:25:39;6.6;;;4.7;;
76548;SDS011;65391;52.068;4.542;2023-09-08T14:28:04;7;;;4.6;;
76548;SDS011;65391;52.068;4.542;2023-09-08T14:30:29;7;;;4.6;;
76548;SDS011;65391;52.068;4.542;2023-09-08T14:32:54;7;;;4.6;;
76548;SDS011;65391;52.068;4.542;2023-09-08T14:35:19;7;;;4.6;;
76548;SDS011;65391;52.068;4.542;2023-09-08T14:37:46;8.8;;;4.8;;
76548;SDS011;65391;52.068;4.542;2023-09-08T14:40:10;8.8;;;4.8;;
76548;SDS011;65391;52.068;4.542;2023-09-08T14:42:34;8.8;;;4.8;;